Terminal Aerodrome Forecast
Issued by NWS Jackson, MS

Home | Current Version | Previous Version | Text Only | Print | Product List | Glossary On
Versions: 1 2 3 4 5 6 7 8 9 10 11 12 13 14 15 16 17
000
FTUS44 KJAN 211130
TAFMEI
TAF
KMEI 211130Z 2112/2212 32010G20KT 3SM TSRA BR SCT003 BKN025CB
      OVC050
     FM211300 23006KT 6SM -SHRA BR VCTS BKN050CB BKN250
     FM211500 20006KT P6SM FEW050 SCT250
     FM220500 19008KT 2SM TSRA BKN006CB BKN050=

USA.gov is the U.S. government's official web portal to all federal, state and local government web resources and services.